Terminal Aerodrome Forecast
Issued by NWS

Home | Current Version | Previous Version | Text Only | Print | Product List | Glossary On
Versions: 1 2 3 4 5 6 7 8 9 10 11 12 13 14 15 16
000
FTUS45 KTFX 171120
TAFHVR
TAF
KHVR 171120Z 1712/1812 22015G25KT P6SM FEW140
     FM171700 23023G35KT P6SM FEW140
     FM180300 26034G51KT P6SM FEW090=

USA.gov is the U.S. government's official web portal to all federal, state and local government web resources and services.